createdAt,value
2018-11-06T00:00:57.352Z,93.23
2018-11-06T00:03:37.546Z,93.83
2018-11-06T00:06:07.285Z,93.86
2018-11-06T00:08:38.901Z,94.07
2018-11-06T00:11:14.076Z,94.12
2018-11-06T00:13:46.596Z,94.04
2018-11-06T00:16:16.310Z,94.50
2018-11-06T00:18:47.445Z,94.11
2018-11-06T00:21:17.924Z,94.11
2018-11-06T00:23:47.111Z,94.41
2018-11-06T00:29:09.654Z,95.66
2018-11-06T00:31:39.165Z,95.92
2018-11-06T00:34:08.889Z,96.32
2018-11-06T00:36:38.122Z,96.25
2018-11-06T00:39:09.823Z,96.50
2018-11-06T00:41:43.391Z,96.89
2018-11-06T00:44:13.144Z,97.58
2018-11-06T00:46:43.503Z,97.19
2018-11-06T00:49:12.534Z,97.22
2018-11-06T00:51:48.213Z,96.99
2018-11-06T00:54:19.998Z,96.52
2018-11-06T00:56:49.330Z,96.49
2018-11-06T00:59:18.423Z,95.80
2018-11-06T01:01:47.511Z,94.92
2018-11-06T01:04:16.715Z,95.45
2018-11-06T01:06:45.958Z,96.20
2018-11-06T01:09:16.232Z,96.24
2018-11-06T01:11:45.713Z,96.81
2018-11-06T01:14:14.882Z,96.83
2018-11-06T01:16:46.265Z,97.56
2018-11-06T01:19:16.279Z,97.55
2018-11-06T01:21:45.519Z,97.46
2018-11-06T01:24:14.541Z,97.46
2018-11-06T01:26:43.888Z,97.29
2018-11-06T01:29:13.815Z,97.46
2018-11-06T01:31:42.879Z,97.17
2018-11-06T01:34:12.257Z,98.25
2018-11-06T01:36:41.295Z,98.45
2018-11-06T01:39:11.186Z,98.80
2018-11-06T01:41:40.399Z,98.84
2018-11-06T01:44:09.485Z,98.73
2018-11-06T01:46:38.770Z,98.44
2018-11-06T01:49:07.876Z,98.00
2018-11-06T01:51:37.152Z,97.13
2018-11-06T01:54:06.459Z,98.22
2018-11-06T01:56:35.842Z,98.72
2018-11-06T01:59:06.254Z,99.21
2018-11-06T02:01:35.987Z,99.02
2018-11-06T02:04:05.179Z,99.60
2018-11-06T02:06:34.164Z,99.50
2018-11-06T02:09:05.462Z,99.67
2018-11-06T02:11:34.680Z,99.75
2018-11-06T02:14:05.510Z,99.57
2018-11-06T02:16:36.371Z,99.69
2018-11-06T02:19:12.123Z,99.26
2018-11-06T02:21:41.541Z,98.81
2018-11-06T02:24:11.563Z,99.01
2018-11-06T02:26:40.772Z,99.02
2018-11-06T02:29:10.435Z,99.33
2018-11-06T02:31:40.206Z,98.96
2018-11-06T02:34:09.307Z,98.70
2018-11-06T02:36:41.787Z,98.74
2018-11-06T02:39:13.106Z,98.46
2018-11-06T02:41:42.250Z,99.10
2018-11-06T02:44:11.391Z,99.21
2018-11-06T02:46:40.475Z,100.00
2018-11-06T02:49:09.815Z,100.00
2018-11-06T02:51:39.095Z,100.00
2018-11-06T02:54:08.012Z,100.00
2018-11-06T02:56:37.086Z,100.00
2018-11-06T02:59:06.452Z,100.00
2018-11-06T03:01:35.789Z,100.00
2018-11-06T03:04:05.060Z,100.00
2018-11-06T03:06:34.146Z,99.88
2018-11-06T03:09:03.472Z,100.00
2018-11-06T03:11:32.946Z,100.00
2018-11-06T03:14:01.994Z,100.00
2018-11-06T03:16:30.975Z,100.00
2018-11-06T03:19:00.315Z,100.00
2018-11-06T03:21:29.287Z,100.00
2018-11-06T03:23:58.630Z,100.00
2018-11-06T03:26:28.105Z,100.00
2018-11-06T03:28:57.363Z,100.00
2018-11-06T03:31:26.562Z,100.00
2018-11-06T03:33:55.806Z,100.00
2018-11-06T03:36:24.882Z,100.00
2018-11-06T03:38:54.046Z,100.00
2018-11-06T03:41:23.276Z,100.00
2018-11-06T03:43:52.077Z,100.00
2018-11-06T03:46:21.347Z,100.00
2018-11-06T03:48:50.409Z,100.00
2018-11-06T03:51:19.466Z,100.00
2018-11-06T03:53:48.566Z,100.00
2018-11-06T03:56:17.938Z,100.00
2018-11-06T03:58:47.139Z,100.00
2018-11-06T04:01:16.263Z,100.00
2018-11-06T04:03:45.588Z,100.00
2018-11-06T04:06:14.656Z,100.00
2018-11-06T04:08:43.655Z,100.00
2018-11-06T04:11:13.040Z,100.00
2018-11-06T04:13:42.266Z,100.00
2018-11-06T04:16:11.530Z,100.00
2018-11-06T04:18:40.787Z,100.00
2018-11-06T04:21:10.162Z,100.00
2018-11-06T04:23:39.262Z,100.00
2018-11-06T04:26:08.770Z,100.00
2018-11-06T04:28:37.870Z,100.00
2018-11-06T04:31:06.926Z,100.00
2018-11-06T04:33:35.962Z,100.00
2018-11-06T04:36:05.104Z,100.00
2018-11-06T04:38:34.533Z,100.00
2018-11-06T04:41:03.623Z,100.00
2018-11-06T04:43:32.723Z,100.00
2018-11-06T04:46:01.896Z,100.00
2018-11-06T04:48:31.117Z,100.00
2018-11-06T04:51:00.163Z,100.00
2018-11-06T04:53:29.782Z,100.00
2018-11-06T04:55:59.053Z,100.00
2018-11-06T04:58:28.454Z,100.00
2018-11-06T05:00:57.587Z,100.00
2018-11-06T05:03:26.642Z,100.00
2018-11-06T05:05:55.830Z,100.00
2018-11-06T05:08:25.289Z,100.00
2018-11-06T05:10:54.542Z,100.00
2018-11-06T05:13:24.263Z,100.00
2018-11-06T05:15:53.662Z,100.00
2018-11-06T05:18:22.739Z,100.00
2018-11-06T05:20:52.849Z,100.00
2018-11-06T05:23:22.187Z,100.00
2018-11-06T05:25:51.387Z,100.00
2018-11-06T05:28:20.610Z,100.00
2018-11-06T05:30:49.699Z,100.00
2018-11-06T05:33:18.987Z,100.00
2018-11-06T05:35:48.491Z,100.00
2018-11-06T05:38:17.491Z,100.00
2018-11-06T05:40:55.227Z,100.00
2018-11-06T05:43:23.990Z,100.00
2018-11-06T05:45:53.726Z,100.00
2018-11-06T05:48:23.087Z,94.50
2018-11-06T05:50:52.183Z,90.58
2018-11-06T05:53:21.338Z,86.90
2018-11-06T05:55:50.699Z,85.75
2018-11-06T05:58:21.312Z,80.59
2018-11-06T06:00:50.417Z,79.49
2018-11-06T06:03:19.863Z,79.44
2018-11-06T06:05:49.121Z,76.52
2018-11-06T06:08:18.210Z,74.75
2018-11-06T06:10:47.344Z,75.78
2018-11-06T06:13:16.478Z,75.92
2018-11-06T06:15:45.483Z,75.53
2018-11-06T06:18:14.895Z,76.05
2018-11-06T06:20:44.104Z,75.32
2018-11-06T06:23:13.190Z,76.50
2018-11-06T06:25:42.402Z,77.35
2018-11-06T06:28:11.506Z,76.37
2018-11-06T06:30:40.528Z,76.54
2018-11-06T06:33:09.906Z,76.48
2018-11-06T06:35:38.999Z,76.36
2018-11-06T06:38:08.267Z,77.01
2018-11-06T06:40:37.198Z,76.71
2018-11-06T06:43:07.156Z,74.86
2018-11-06T06:45:36.201Z,74.40
2018-11-06T06:48:05.806Z,72.26
2018-11-06T06:50:35.009Z,71.07
2018-11-06T06:53:04.194Z,71.55
2018-11-06T06:55:33.626Z,70.21
2018-11-06T06:58:02.759Z,68.63
2018-11-06T07:00:31.759Z,66.72
2018-11-06T07:03:01.122Z,65.70
2018-11-06T07:05:30.610Z,64.19
2018-11-06T07:07:59.914Z,63.96
2018-11-06T07:10:29.125Z,64.09
2018-11-06T07:12:58.322Z,62.76
2018-11-06T07:15:27.508Z,61.29
2018-11-06T07:17:56.930Z,62.39
2018-11-06T07:20:26.620Z,62.63
2018-11-06T07:22:55.745Z,62.67
2018-11-06T07:25:24.934Z,60.99
2018-11-06T07:27:54.226Z,57.90
2018-11-06T07:30:24.367Z,57.72
2018-11-06T07:32:53.858Z,57.89
2018-11-06T07:35:23.184Z,57.40
2018-11-06T07:37:52.257Z,56.80
2018-11-06T07:40:21.628Z,56.32
2018-11-06T07:42:50.745Z,58.14
2018-11-06T07:45:21.246Z,59.82
2018-11-06T07:47:50.598Z,62.13
2018-11-06T07:50:19.881Z,61.28
2018-11-06T07:52:49.293Z,60.79
2018-11-06T07:55:19.529Z,61.39
2018-11-06T07:57:48.598Z,63.61
2018-11-06T08:00:20.403Z,62.97
2018-11-06T08:02:49.967Z,62.21
2018-11-06T08:05:19.139Z,62.62
2018-11-06T08:07:49.067Z,63.61
2018-11-06T08:10:18.595Z,64.00
2018-11-06T08:12:49.112Z,64.43
2018-11-06T08:15:18.257Z,64.96
2018-11-06T08:17:47.519Z,66.04
2018-11-06T08:20:16.566Z,65.68
2018-11-06T08:22:46.248Z,65.68
2018-11-06T08:25:16.245Z,65.46
2018-11-06T08:27:45.737Z,66.05
2018-11-06T08:30:15.112Z,65.86
2018-11-06T08:32:44.458Z,66.18
2018-11-06T08:35:14.874Z,66.93
2018-11-06T08:37:44.299Z,66.85
2018-11-06T08:40:14.499Z,66.57
2018-11-06T08:42:43.602Z,65.80
2018-11-06T08:45:14.056Z,64.69
2018-11-06T08:47:44.175Z,65.38
2018-11-06T08:50:14.533Z,65.98
2018-11-06T08:52:44.204Z,65.11
2018-11-06T08:55:14.105Z,64.77
2018-11-06T08:57:44.039Z,64.07
2018-11-06T09:00:14.942Z,64.06
2018-11-06T09:02:45.159Z,64.81
2018-11-06T09:05:15.319Z,63.83
2018-11-06T09:07:44.481Z,64.03
2018-11-06T09:10:14.622Z,64.50
2018-11-06T09:12:43.663Z,64.84
2018-11-06T09:15:14.995Z,63.06
2018-11-06T09:17:44.177Z,62.42
2018-11-06T09:20:14.862Z,62.53
2018-11-06T09:22:43.851Z,62.68
2018-11-06T09:25:14.526Z,61.82
2018-11-06T09:27:43.975Z,61.76
2018-11-06T09:30:14.795Z,61.95
2018-11-06T09:32:43.980Z,61.47
2018-11-06T09:35:13.805Z,61.33
2018-11-06T09:37:43.343Z,61.04
2018-11-06T09:40:19.458Z,61.73
2018-11-06T09:42:48.359Z,61.13
2018-11-06T09:45:17.528Z,60.35
2018-11-06T09:47:46.793Z,60.77
2018-11-06T09:50:17.010Z,60.35
2018-11-06T09:52:46.606Z,59.89
2018-11-06T09:55:16.631Z,59.67
2018-11-06T09:57:45.974Z,59.16
2018-11-06T10:00:16.896Z,59.09
2018-11-06T10:02:46.165Z,59.11
2018-11-06T10:05:15.539Z,58.64
2018-11-06T10:07:44.695Z,57.97
2018-11-06T10:10:15.342Z,57.74
2018-11-06T10:12:44.354Z,57.23
2018-11-06T10:15:16.294Z,56.25
2018-11-06T10:17:46.643Z,56.20
2018-11-06T10:20:16.657Z,56.58
2018-11-06T10:22:45.866Z,56.29
2018-11-06T10:25:15.165Z,56.08
2018-11-06T10:27:44.101Z,56.27
2018-11-06T10:30:15.248Z,56.15
2018-11-06T10:32:44.414Z,55.97
2018-11-06T10:35:14.894Z,56.89
2018-11-06T10:37:44.259Z,56.14
2018-11-06T10:40:16.346Z,55.91
2018-11-06T10:42:46.254Z,55.32
2018-11-06T10:45:15.319Z,55.55
2018-11-06T10:47:44.521Z,55.74
2018-11-06T10:50:14.366Z,54.87
2018-11-06T10:52:43.934Z,55.24
2018-11-06T10:55:13.022Z,54.11
2018-11-06T10:57:42.411Z,53.46
2018-11-06T11:00:17.543Z,52.84
2018-11-06T11:03:51.087Z,53.03
2018-11-06T11:06:20.210Z,51.44
2018-11-06T11:08:49.282Z,51.64
2018-11-06T11:11:18.502Z,50.35
2018-11-06T11:13:47.566Z,50.64
2018-11-06T11:16:17.007Z,49.85
2018-11-06T11:18:46.706Z,47.72
2018-11-06T11:21:15.988Z,45.00
2018-11-06T11:23:44.960Z,44.27
2018-11-06T11:26:14.196Z,42.86
2018-11-06T11:28:43.551Z,42.09
2018-11-06T11:31:12.476Z,40.91
2018-11-06T11:33:42.007Z,40.88
2018-11-06T11:36:11.086Z,39.56
2018-11-06T11:38:39.862Z,39.96
2018-11-06T11:41:09.078Z,40.09
2018-11-06T11:43:38.154Z,39.84
2018-11-06T11:46:06.971Z,40.51
2018-11-06T11:48:36.195Z,40.94
2018-11-06T11:51:05.352Z,40.65
2018-11-06T11:53:34.351Z,40.41
2018-11-06T11:56:03.691Z,40.79
2018-11-06T11:58:32.874Z,40.27
2018-11-06T12:01:01.854Z,40.67
2018-11-06T12:03:31.161Z,40.22
2018-11-06T12:06:00.479Z,41.53
2018-11-06T12:08:30.663Z,42.46
2018-11-06T12:11:00.705Z,42.30
2018-11-06T12:13:29.870Z,42.57
2018-11-06T12:15:59.170Z,42.15
2018-11-06T12:18:28.155Z,43.12
2018-11-06T12:20:57.074Z,43.25
2018-11-06T12:23:26.277Z,42.97
2018-11-06T12:25:55.423Z,42.38
2018-11-06T12:28:24.359Z,41.38
2018-11-06T12:30:54.280Z,42.25
2018-11-06T12:33:24.259Z,42.92
2018-11-06T12:35:53.774Z,43.13
2018-11-06T12:38:23.095Z,43.18
2018-11-06T12:40:52.606Z,42.60
2018-11-06T12:43:21.469Z,42.11
2018-11-06T12:45:50.754Z,41.89
2018-11-06T12:48:20.193Z,43.00
2018-11-06T12:50:49.458Z,44.50
2018-11-06T12:53:18.409Z,45.12
2018-11-06T12:55:48.926Z,45.84
2018-11-06T12:58:18.923Z,45.54
2018-11-06T13:00:47.936Z,45.92
2018-11-06T13:03:17.922Z,46.29
2018-11-06T13:05:47.171Z,47.12
2018-11-06T13:08:16.335Z,47.32
2018-11-06T13:10:45.598Z,47.56
2018-11-06T13:13:14.433Z,47.75
2018-11-06T13:15:43.297Z,47.47
2018-11-06T13:18:12.368Z,48.64
2018-11-06T13:20:41.526Z,48.74
2018-11-06T13:23:10.497Z,49.12
2018-11-06T13:25:39.761Z,48.96
2018-11-06T13:28:08.740Z,49.31
2018-11-06T13:30:37.992Z,50.02
2018-11-06T13:33:07.173Z,50.12
2018-11-06T13:35:36.203Z,50.03
2018-11-06T13:38:05.211Z,50.28
2018-11-06T13:40:34.535Z,50.38
2018-11-06T13:43:03.927Z,49.75
2018-11-06T13:45:33.253Z,50.25
2018-11-06T13:48:02.222Z,50.12
2018-11-06T13:50:31.220Z,50.11
2018-11-06T13:53:00.210Z,50.13
2018-11-06T13:55:29.413Z,49.32
2018-11-06T13:57:58.514Z,49.28
2018-11-06T14:00:27.404Z,49.04
2018-11-06T14:02:56.609Z,49.49
2018-11-06T14:05:25.599Z,49.67
2018-11-06T14:07:54.483Z,49.22
2018-11-06T14:10:23.996Z,49.89
2018-11-06T14:12:52.867Z,50.41
2018-11-06T14:15:22.379Z,50.28
2018-11-06T14:17:51.899Z,50.33
2018-11-06T14:20:21.060Z,50.79
2018-11-06T14:22:50.000Z,50.76
2018-11-06T14:25:19.191Z,51.48
2018-11-06T14:27:48.174Z,51.56
2018-11-06T14:30:18.671Z,51.58
2018-11-06T14:32:48.415Z,51.49
2018-11-06T14:35:18.551Z,52.10
2018-11-06T14:37:48.040Z,52.53
2018-11-06T14:40:17.486Z,53.18
2018-11-06T14:42:47.028Z,53.27
2018-11-06T14:45:17.350Z,53.72
2018-11-06T14:47:46.618Z,54.27
2018-11-06T14:50:15.618Z,54.40
2018-11-06T14:52:44.458Z,54.50
2018-11-06T14:55:14.850Z,54.91
2018-11-06T14:57:43.996Z,55.29
2018-11-06T15:00:21.174Z,55.53
2018-11-06T15:02:52.160Z,56.39
2018-11-06T15:05:22.136Z,56.39
2018-11-06T15:07:51.119Z,57.03
2018-11-06T15:10:20.210Z,58.45
2018-11-06T15:12:49.613Z,58.47
2018-11-06T15:15:18.714Z,58.92
2018-11-06T15:17:48.238Z,59.96
2018-11-06T15:20:18.894Z,59.87
2018-11-06T15:22:47.992Z,60.61
2018-11-06T15:25:17.793Z,60.96
2018-11-06T15:27:46.963Z,61.34
2018-11-06T15:30:17.023Z,61.81
2018-11-06T15:32:46.142Z,62.09
2018-11-06T15:35:16.658Z,62.60
2018-11-06T15:37:45.583Z,63.08
2018-11-06T15:40:16.367Z,63.79
2018-11-06T15:42:45.732Z,64.96
2018-11-06T15:45:15.766Z,65.96
2018-11-06T15:47:45.555Z,66.95
2018-11-06T15:50:15.735Z,67.51
2018-11-06T15:52:46.366Z,67.96
2018-11-06T15:55:15.719Z,69.57
2018-11-06T15:57:45.212Z,69.97
2018-11-06T16:00:16.135Z,71.11
2018-11-06T16:02:45.935Z,71.16
2018-11-06T16:05:15.166Z,72.20
2018-11-06T16:07:44.908Z,72.40
2018-11-06T16:10:17.868Z,73.47
2018-11-06T16:12:46.946Z,74.00
2018-11-06T16:15:16.158Z,74.25
2018-11-06T16:17:45.207Z,74.17
2018-11-06T16:20:15.303Z,74.31
2018-11-06T16:22:44.561Z,74.63
2018-11-06T16:25:15.227Z,74.64
2018-11-06T16:27:44.603Z,75.05
2018-11-06T16:30:16.545Z,75.13
2018-11-06T16:32:46.061Z,75.15
2018-11-06T16:35:16.386Z,75.21
2018-11-06T16:37:46.954Z,75.44
2018-11-06T16:40:16.481Z,75.54
2018-11-06T16:42:46.351Z,76.11
2018-11-06T16:45:17.310Z,75.83
2018-11-06T16:47:47.212Z,75.61
2018-11-06T16:50:16.963Z,76.10
2018-11-06T16:52:45.960Z,76.39
2018-11-06T16:55:15.566Z,76.48
2018-11-06T16:57:45.037Z,76.90
2018-11-06T17:00:15.860Z,77.38
2018-11-06T17:02:45.158Z,77.66
2018-11-06T17:05:15.328Z,78.27
2018-11-06T17:07:45.162Z,78.67
2018-11-06T17:10:15.036Z,78.78
2018-11-06T17:12:43.924Z,79.01
2018-11-06T17:15:23.264Z,78.91
2018-11-06T17:17:53.514Z,79.18
2018-11-06T17:20:22.988Z,78.90
2018-11-06T17:22:52.571Z,78.79
2018-11-06T17:25:22.443Z,79.57
2018-11-06T17:27:51.423Z,79.81
2018-11-06T17:30:20.757Z,80.28
2018-11-06T17:32:50.006Z,80.63
2018-11-06T17:35:19.920Z,80.61
2018-11-06T17:37:49.270Z,80.56
2018-11-06T17:40:20.109Z,81.23
2018-11-06T17:42:49.055Z,81.23
2018-11-06T17:45:19.728Z,80.79
2018-11-06T17:47:48.782Z,81.32
2018-11-06T17:50:17.998Z,81.14
2018-11-06T17:52:47.474Z,81.25
2018-11-06T17:55:17.950Z,81.02
2018-11-06T17:57:47.039Z,81.07
2018-11-06T18:00:17.783Z,81.98
2018-11-06T18:02:46.759Z,81.76
2018-11-06T18:05:17.001Z,82.16
2018-11-06T18:07:46.401Z,82.50
2018-11-06T18:10:17.102Z,82.26
2018-11-06T18:12:46.403Z,82.33
2018-11-06T18:15:15.850Z,82.55
2018-11-06T18:17:45.315Z,82.69
2018-11-06T18:20:15.030Z,82.50
2018-11-06T18:22:44.627Z,82.75
2018-11-06T18:25:14.296Z,82.75
2018-11-06T18:27:43.098Z,82.55
2018-11-06T18:30:15.147Z,82.73
2018-11-06T18:32:44.178Z,82.29
2018-11-06T18:35:14.203Z,82.11
2018-11-06T18:37:43.585Z,81.85
2018-11-06T18:40:14.974Z,81.62
2018-11-06T18:42:45.038Z,80.96
2018-11-06T18:45:14.843Z,80.77
2018-11-06T18:47:44.237Z,80.70
2018-11-06T18:50:15.381Z,80.83
2018-11-06T18:52:45.739Z,80.45
2018-11-06T18:55:14.884Z,80.83
2018-11-06T18:57:43.902Z,80.74
2018-11-06T19:00:14.751Z,80.56
2018-11-06T19:02:45.179Z,80.81
2018-11-06T19:05:14.534Z,81.30
2018-11-06T19:07:43.642Z,81.54
2018-11-06T19:10:14.113Z,81.89
2018-11-06T19:12:43.402Z,81.93
2018-11-06T19:15:16.687Z,82.21
2018-11-06T19:17:46.268Z,82.35
2018-11-06T19:20:15.824Z,82.20
2018-11-06T19:22:45.063Z,81.99
2018-11-06T19:25:14.602Z,82.02
2018-11-06T19:27:44.092Z,81.32
2018-11-06T19:30:16.041Z,81.04
2018-11-06T19:32:45.665Z,81.25
2018-11-06T19:35:14.746Z,80.95
2018-11-06T19:37:44.283Z,81.19
2018-11-06T19:40:14.726Z,80.72
2018-11-06T19:42:45.862Z,80.00
2018-11-06T19:45:15.152Z,79.80
2018-11-06T19:47:44.389Z,80.44
2018-11-06T19:50:16.689Z,80.64
2018-11-06T19:52:45.751Z,81.47
2018-11-06T19:55:15.872Z,81.42
2018-11-06T19:57:45.051Z,81.68
2018-11-06T20:00:17.211Z,81.94
2018-11-06T20:02:47.585Z,82.61
2018-11-06T20:05:17.270Z,82.43
2018-11-06T20:07:47.215Z,82.76
2018-11-06T20:10:17.919Z,82.75
2018-11-06T20:12:47.993Z,82.69
2018-11-06T20:15:17.558Z,83.12
2018-11-06T20:17:47.216Z,83.62
2018-11-06T20:20:20.394Z,83.25
2018-11-06T20:22:49.662Z,84.21
2018-11-06T20:25:18.773Z,84.53
2018-11-06T20:27:47.550Z,84.03
2018-11-06T20:30:19.646Z,84.68
2018-11-06T20:32:48.691Z,85.25
2018-11-06T20:35:18.046Z,85.30
2018-11-06T20:37:47.305Z,85.74
2018-11-06T20:40:17.746Z,85.75
2018-11-06T20:42:47.143Z,86.67
2018-11-06T20:45:17.298Z,86.77
2018-11-06T20:47:46.592Z,87.65
2018-11-06T20:50:16.788Z,87.52
2018-11-06T20:52:45.933Z,87.66
2018-11-06T20:55:15.873Z,87.57
2018-11-06T20:57:44.916Z,87.51
2018-11-06T21:00:28.406Z,87.98
2018-11-06T21:02:59.662Z,87.14
2018-11-06T21:05:28.699Z,87.52
2018-11-06T21:07:58.003Z,87.58
2018-11-06T21:10:28.606Z,87.11
2018-11-06T21:12:57.757Z,88.10
2018-11-06T21:15:26.858Z,88.14
2018-11-06T21:17:56.196Z,87.93
2018-11-06T21:20:25.092Z,88.27
2018-11-06T21:22:54.345Z,87.77
2018-11-06T21:25:23.842Z,87.96
2018-11-06T21:27:52.717Z,88.22
2018-11-06T21:30:22.404Z,87.92
2018-11-06T21:32:52.489Z,88.13
2018-11-06T21:35:21.740Z,88.56
2018-11-06T21:37:50.774Z,88.51
2018-11-06T21:40:20.975Z,88.30
2018-11-06T21:42:50.374Z,88.27
2018-11-06T21:45:20.126Z,88.98
2018-11-06T21:47:49.922Z,88.53
2018-11-06T21:50:19.509Z,88.93
2018-11-06T21:52:48.998Z,88.76
2018-11-06T21:55:18.954Z,88.82
2018-11-06T21:57:47.783Z,89.10
2018-11-06T22:00:18.771Z,89.19
2018-11-06T22:02:47.574Z,89.09
2018-11-06T22:05:17.905Z,89.14
2018-11-06T22:07:47.291Z,89.97
2018-11-06T22:10:17.696Z,89.32
2018-11-06T22:12:47.165Z,89.78
2018-11-06T22:15:17.342Z,89.21
2018-11-06T22:17:46.527Z,88.69
2018-11-06T22:20:16.887Z,89.02
2018-11-06T22:22:47.570Z,88.54
2018-11-06T22:25:16.398Z,88.96
2018-11-06T22:27:45.678Z,88.41
2018-11-06T22:30:15.874Z,88.51
2018-11-06T22:32:45.789Z,88.85
2018-11-06T22:35:16.123Z,88.64
2018-11-06T22:37:45.458Z,88.62
2018-11-06T22:40:15.866Z,88.33
2018-11-06T22:42:44.748Z,88.79
2018-11-06T22:45:15.000Z,88.49
2018-11-06T22:47:43.986Z,88.30
2018-11-06T22:50:14.346Z,88.30
2018-11-06T22:52:43.939Z,88.00
2018-11-06T22:55:12.825Z,87.51
2018-11-06T22:57:42.018Z,87.30
2018-11-06T23:00:13.256Z,87.22
2018-11-06T23:02:42.659Z,87.18
2018-11-06T23:05:11.762Z,87.24
2018-11-06T23:07:46.094Z,87.08
2018-11-06T23:10:15.050Z,87.35
2018-11-06T23:12:44.094Z,87.10
2018-11-06T23:15:13.426Z,87.16
2018-11-06T23:17:42.554Z,86.78
2018-11-06T23:20:11.647Z,87.00
2018-11-06T23:22:40.592Z,86.81
2018-11-06T23:25:10.180Z,87.37
2018-11-06T23:27:39.148Z,86.81
2018-11-06T23:30:11.219Z,87.13
2018-11-06T23:32:40.131Z,86.88
2018-11-06T23:35:09.551Z,87.45
2018-11-06T23:37:39.578Z,87.28
2018-11-06T23:40:09.036Z,87.14
2018-11-06T23:42:37.840Z,86.97
2018-11-06T23:45:07.856Z,87.36
2018-11-06T23:47:37.059Z,87.64
2018-11-06T23:50:06.855Z,87.40
2018-11-06T23:52:36.102Z,88.03
2018-11-06T23:55:05.329Z,88.10
2018-11-06T23:57:34.443Z,88.50
